Time;durP1;ratioP1;P1;durP2;ratioP2;P2;SDS_P1;SDS_P2;PMS_P1;PMS_P2;Temp;Humidity;BMP_temperature;BMP_pressure;BME280_temperature;BME280_humidity;BME280_pressure;Samples;Min_cycle;Max_cycle;Signal;HPM_P1;HPM_P2
2021/05/28 00:00:28;;;;;;;17.27;13.05;;;9.60;83.40;;;;;;5019377;28;20045;-75
2021/05/28 00:02:54;;;;;;;17.48;12.30;;;9.60;83.40;;;;;;5022918;28;20026;-75
2021/05/28 00:05:20;;;;;;;17.75;12.68;;;9.60;83.20;;;;;;5022351;28;20037;-75
2021/05/28 00:07:46;;;;;;;18.63;12.93;;;9.60;83.20;;;;;;5013906;28;20030;-74
2021/05/28 00:10:12;;;;;;;17.08;12.90;;;9.60;83.20;;;;;;5028613;28;20056;-74
2021/05/28 00:12:38;;;;;;;17.08;12.20;;;9.60;83.10;;;;;;5008158;28;20413;-75
2021/05/28 00:15:08;;;;;;;14.85;11.68;;;9.60;82.90;;;;;;5018164;28;20484;-76
2021/05/28 00:17:33;;;;;;;18.85;12.30;;;9.50;82.60;;;;;;5014444;28;20470;-75
2021/05/28 00:19:59;;;;;;;15.57;11.45;;;9.50;82.70;;;;;;5027690;28;20026;-75
2021/05/28 00:22:24;;;;;;;17.95;11.57;;;9.50;82.50;;;;;;5026865;28;20046;-74
2021/05/28 00:24:50;;;;;;;15.70;11.60;;;9.40;82.50;;;;;;5010507;28;20557;-75
2021/05/28 00:27:16;;;;;;;15.32;11.00;;;9.40;82.20;;;;;;5021076;28;20029;-75
2021/05/28 00:29:42;;;;;;;16.10;11.63;;;9.30;82.20;;;;;;5021274;28;20033;-76
2021/05/28 00:32:07;;;;;;;15.48;11.57;;;9.30;82.30;;;;;;5017096;28;20192;-75
2021/05/28 00:34:33;;;;;;;16.25;10.77;;;9.20;82.40;;;;;;5025489;28;20481;-76
2021/05/28 00:36:59;;;;;;;15.82;11.13;;;9.20;82.60;;;;;;5024666;28;20426;-75
2021/05/28 00:39:24;;;;;;;15.07;11.63;;;9.10;82.60;;;;;;5027704;28;20065;-75
2021/05/28 00:41:50;;;;;;;14.57;11.25;;;9.10;82.50;;;;;;5026272;28;20046;-76
2021/05/28 00:44:23;;;;;;;17.13;11.57;;;9.10;82.70;;;;;;5023515;28;20038;-76
2021/05/28 00:46:49;;;;;;;19.58;12.32;;;9.10;82.70;;;;;;5031216;28;20075;-76
2021/05/28 00:49:15;;;;;;;17.60;12.27;;;9.10;82.60;;;;;;5037205;28;20112;-74
2021/05/28 00:51:41;;;;;;;17.50;12.68;;;9.10;82.70;;;;;;5032214;28;20074;-74
2021/05/28 00:54:08;;;;;;;17.13;12.30;;;9.00;82.70;;;;;;5024676;28;20052;-74
2021/05/28 00:56:34;;;;;;;15.90;12.63;;;9.00;82.70;;;;;;5008471;28;20030;-77
2021/05/28 00:59:02;;;;;;;21.42;13.48;;;9.00;82.60;;;;;;4996129;28;20054;-75
2021/05/28 01:01:28;;;;;;;19.10;13.55;;;8.90;82.60;;;;;;5017232;28;20046;-73
2021/05/28 01:03:54;;;;;;;18.85;13.65;;;8.80;83.30;;;;;;5004875;28;20463;-74
2021/05/28 01:06:21;;;;;;;18.33;13.85;;;8.80;83.40;;;;;;5017345;28;20036;-75
2021/05/28 01:08:47;;;;;;;20.08;14.70;;;8.80;83.40;;;;;;5020383;28;20038;-74
2021/05/28 01:11:12;;;;;;;17.25;13.32;;;8.80;83.10;;;;;;5020819;28;20393;-75
2021/05/28 01:13:38;;;;;;;20.38;14.82;;;8.80;83.10;;;;;;5024520;28;20100;-77
2021/05/28 01:16:04;;;;;;;19.60;14.50;;;8.70;83.30;;;;;;5020981;28;20095;-74
2021/05/28 01:18:30;;;;;;;20.65;15.02;;;8.70;83.30;;;;;;5021658;28;20029;-74
2021/05/28 01:20:55;;;;;;;19.90;14.50;;;8.70;83.50;;;;;;5020754;28;20037;-74
2021/05/28 01:23:21;;;;;;;21.80;14.13;;;8.60;83.70;;;;;;5023339;28;20045;-75
2021/05/28 01:25:47;;;;;;;19.48;12.73;;;8.60;83.70;;;;;;5025518;28;20049;-75
2021/05/28 01:28:17;;;;;;;21.23;12.77;;;8.60;83.70;;;;;;5025033;28;20033;-75
2021/05/28 01:30:42;;;;;;;17.02;12.30;;;8.60;83.60;;;;;;5017597;28;20046;-75
2021/05/28 01:33:09;;;;;;;18.70;12.75;;;8.50;83.70;;;;;;5016403;28;20038;-74
2021/05/28 01:35:35;;;;;;;17.00;12.50;;;8.60;83.70;;;;;;5021053;28;20041;-75
2021/05/28 01:38:05;;;;;;;17.13;12.60;;;8.60;83.70;;;;;;5020577;28;20044;-74
2021/05/28 01:40:31;;;;;;;17.42;12.75;;;8.60;83.60;;;;;;5021518;28;20481;-74
2021/05/28 01:42:57;;;;;;;18.27;13.55;;;8.50;83.60;;;;;;5020560;28;20132;-74
2021/05/28 01:45:23;;;;;;;23.10;13.10;;;8.50;83.60;;;;;;5007984;28;20216;-77
2021/05/28 01:47:49;;;;;;;19.58;13.02;;;8.50;83.70;;;;;;5015725;28;20041;-75
2021/05/28 01:50:15;;;;;;;17.75;12.68;;;8.40;83.60;;;;;;5027848;28;20040;-75
2021/05/28 01:52:42;;;;;;;19.00;13.15;;;8.50;83.60;;;;;;5034587;28;20068;-74
2021/05/28 01:55:12;;;;;;;19.15;12.98;;;8.40;83.50;;;;;;5029372;28;20030;-74
2021/05/28 01:57:39;;;;;;;20.38;14.75;;;8.40;83.50;;;;;;5009757;28;20045;-74
2021/05/28 02:00:07;;;;;;;19.38;13.80;;;8.30;83.60;;;;;;5009028;28;20042;-74
2021/05/28 02:02:33;;;;;;;20.88;14.80;;;8.20;84.00;;;;;;5011334;28;20030;-76
2021/05/28 02:04:58;;;;;;;20.60;13.80;;;8.30;84.10;;;;;;5023692;28;20065;-75
2021/05/28 02:07:24;;;;;;;18.85;13.73;;;8.30;84.10;;;;;;5009819;28;20030;-78
2021/05/28 02:09:49;;;;;;;17.88;13.85;;;8.20;84.20;;;;;;4999487;28;20382;-74
2021/05/28 02:12:15;;;;;;;18.60;13.93;;;8.30;84.10;;;;;;5019088;28;20050;-75
2021/05/28 02:14:41;;;;;;;17.65;13.00;;;8.30;84.10;;;;;;5024764;28;20026;-75
2021/05/28 02:17:09;;;;;;;16.65;13.77;;;8.30;84.10;;;;;;5016351;28;20049;-75
2021/05/28 02:19:35;;;;;;;17.40;13.73;;;8.30;84.00;;;;;;5028986;28;20030;-75
2021/05/28 02:22:01;;;;;;;18.95;13.55;;;8.30;83.80;;;;;;5029785;28;20096;-74
2021/05/28 02:24:26;;;;;;;17.83;13.18;;;8.30;83.60;;;;;;5029078;28;20092;-74
2021/05/28 02:26:55;;;;;;;17.27;13.90;;;8.20;83.40;;;;;;5022495;28;20488;-75
2021/05/28 02:29:21;;;;;;;20.90;13.52;;;8.30;83.30;;;;;;5015742;28;20086;-75
2021/05/28 02:31:47;;;;;;;18.30;12.90;;;8.20;83.30;;;;;;5001954;28;20448;-74
2021/05/28 02:34:12;;;;;;;22.08;13.45;;;8.10;83.40;;;;;;5020458;28;20045;-74
2021/05/28 02:36:38;;;;;;;19.85;13.30;;;8.20;83.40;;;;;;5028253;28;20045;-75
2021/05/28 02:39:05;;;;;;;19.15;14.10;;;8.10;83.30;;;;;;5028699;28;20041;-75
2021/05/28 02:41:31;;;;;;;18.98;13.50;;;8.10;83.30;;;;;;5018188;28;20045;-74
2021/05/28 02:43:57;;;;;;;20.48;13.50;;;8.10;83.30;;;;;;5006049;28;20053;-74
2021/05/28 02:46:23;;;;;;;23.08;13.85;;;8.10;83.10;;;;;;5000356;28;20069;-74
2021/05/28 02:48:48;;;;;;;17.35;13.80;;;8.00;83.40;;;;;;5003312;28;20018;-75
2021/05/28 02:51:15;;;;;;;20.83;15.35;;;8.00;83.50;;;;;;5003457;28;20386;-75
2021/05/28 02:53:40;;;;;;;19.00;14.32;;;7.80;83.90;;;;;;5000576;28;20037;-75
2021/05/28 02:56:06;;;;;;;21.25;15.05;;;7.90;84.30;;;;;;4997435;28;20386;-75
2021/05/28 02:58:33;;;;;;;19.33;13.80;;;7.80;84.40;;;;;;5017512;28;20038;-75
2021/05/28 03:00:59;;;;;;;20.13;15.23;;;7.80;84.50;;;;;;5018669;28;20052;-75
2021/05/28 03:03:25;;;;;;;21.35;15.25;;;7.90;84.60;;;;;;5035771;28;20082;-76
2021/05/28 03:05:51;;;;;;;19.73;14.85;;;7.80;84.50;;;;;;5027798;28;20034;-74
2021/05/28 03:08:20;;;;;;;20.02;15.38;;;7.90;84.70;;;;;;5007626;28;20384;-75
2021/05/28 03:10:46;;;;;;;22.60;14.93;;;7.90;84.80;;;;;;5022791;28;20022;-75
2021/05/28 03:13:12;;;;;;;20.55;15.07;;;7.80;84.90;;;;;;5018898;28;20460;-75
2021/05/28 03:15:38;;;;;;;21.92;15.82;;;7.90;85.00;;;;;;5017592;28;20465;-75
2021/05/28 03:18:11;;;;;;;22.42;15.60;;;7.90;85.00;;;;;;5017545;28;20076;-77
2021/05/28 03:20:37;;;;;;;19.38;15.32;;;7.80;85.00;;;;;;5019387;28;20108;-75
2021/05/28 03:23:08;;;;;;;20.23;14.43;;;7.80;85.00;;;;;;5021518;28;20120;-75
2021/05/28 03:25:34;;;;;;;18.52;14.30;;;7.80;85.10;;;;;;5016719;28;20492;-76
2021/05/28 03:28:00;;;;;;;21.98;16.17;;;7.80;85.10;;;;;;5021823;28;20039;-75
2021/05/28 03:30:26;;;;;;;18.90;14.15;;;7.90;85.10;;;;;;5015271;28;20038;-75
2021/05/28 03:32:51;;;;;;;21.25;14.50;;;7.80;85.10;;;;;;5021006;28;20096;-76
2021/05/28 03:35:17;;;;;;;20.15;15.18;;;7.80;84.90;;;;;;5023457;28;20026;-75
2021/05/28 03:37:43;;;;;;;23.08;15.48;;;7.90;84.70;;;;;;5018169;28;20053;-76
2021/05/28 03:40:10;;;;;;;21.88;16.20;;;7.90;84.60;;;;;;5022414;28;20038;-75
2021/05/28 03:42:36;;;;;;;21.05;15.32;;;7.90;84.50;;;;;;5014741;28;20040;-77
2021/05/28 03:45:05;;;;;;;19.73;15.88;;;8.00;84.60;;;;;;5023406;28;20120;-76
2021/05/28 03:47:32;;;;;;;21.92;16.50;;;8.00;84.80;;;;;;5024973;28;20076;-76
2021/05/28 03:49:58;;;;;;;23.23;16.25;;;8.00;84.90;;;;;;5026702;28;20183;-76
2021/05/28 03:52:23;;;;;;;25.02;16.58;;;8.10;85.00;;;;;;5028278;28;20073;-76
2021/05/28 03:54:49;;;;;;;19.90;16.40;;;8.10;85.00;;;;;;5027105;28;20073;-77
2021/05/28 03:57:15;;;;;;;22.42;18.05;;;8.10;85.10;;;;;;5027583;28;20432;-75
2021/05/28 03:59:40;;;;;;;23.50;17.00;;;8.20;85.00;;;;;;5021463;28;20099;-76
2021/05/28 04:02:06;;;;;;;24.08;17.65;;;8.20;85.00;;;;;;5010531;28;20518;-76
2021/05/28 04:04:33;;;;;;;22.73;17.17;;;8.30;85.00;;;;;;5000048;28;21743;-77
2021/05/28 04:06:59;;;;;;;22.95;17.63;;;8.40;84.80;;;;;;5000558;28;20049;-76
2021/05/28 04:09:25;;;;;;;21.27;16.27;;;8.50;84.60;;;;;;5007910;28;20029;-77
2021/05/28 04:11:51;;;;;;;20.23;16.20;;;8.50;84.40;;;;;;5007801;28;20466;-74
2021/05/28 04:14:16;;;;;;;20.58;16.58;;;8.60;84.30;;;;;;5025726;28;20044;-74
2021/05/28 04:16:42;;;;;;;21.30;15.25;;;8.60;84.00;;;;;;5027835;28;20504;-74
2021/05/28 04:19:09;;;;;;;22.67;17.13;;;8.60;83.70;;;;;;5013859;28;20118;-74
2021/05/28 04:21:34;;;;;;;25.60;17.17;;;8.70;83.40;;;;;;5019579;28;20029;-75
2021/05/28 04:24:00;;;;;;;24.63;17.88;;;8.80;83.40;;;;;;5014591;28;20030;-75
2021/05/28 04:26:27;;;;;;;24.75;19.38;;;8.80;83.20;;;;;;5019518;28;20083;-74
2021/05/28 04:28:52;;;;;;;20.15;16.50;;;8.80;83.40;;;;;;5020253;28;20057;-74
2021/05/28 04:31:18;;;;;;;21.73;17.88;;;8.80;83.40;;;;;;5027228;28;20064;-74
2021/05/28 04:33:44;;;;;;;23.85;16.42;;;8.80;83.40;;;;;;5016966;28;20109;-75
2021/05/28 04:36:10;;;;;;;24.15;18.52;;;8.80;83.50;;;;;;5009335;28;20034;-74
2021/05/28 04:38:37;;;;;;;26.38;18.55;;;8.80;83.60;;;;;;4989190;28;20142;-76
2021/05/28 04:41:03;;;;;;;23.83;18.58;;;8.70;83.70;;;;;;5004603;28;20030;-75
2021/05/28 04:43:28;;;;;;;24.95;19.50;;;8.70;83.80;;;;;;5021232;28;20254;-75
2021/05/28 04:45:54;;;;;;;23.05;17.23;;;8.70;83.70;;;;;;5021473;28;20029;-74
2021/05/28 04:48:20;;;;;;;22.77;17.52;;;8.70;83.80;;;;;;5018364;28;20085;-74
2021/05/28 04:50:46;;;;;;;24.65;17.10;;;8.90;83.90;;;;;;5021256;28;20044;-75
2021/05/28 04:53:11;;;;;;;24.23;17.77;;;9.00;83.90;;;;;;5015199;28;20050;-77
2021/05/28 04:55:38;;;;;;;21.50;17.88;;;9.10;83.60;;;;;;5005172;28;20045;-75
2021/05/28 04:58:03;;;;;;;24.95;17.80;;;9.20;83.20;;;;;;5004643;28;20034;-74
2021/05/28 05:00:30;;;;;;;23.23;18.20;;;9.20;82.80;;;;;;5001662;28;20038;-75
2021/05/28 05:02:56;;;;;;;21.80;17.85;;;9.30;82.90;;;;;;4998822;28;20069;-75
2021/05/28 05:05:23;;;;;;;23.50;17.85;;;9.50;82.60;;;;;;4994664;28;20049;-75
2021/05/28 05:07:48;;;;;;;26.05;20.08;;;9.60;82.20;;;;;;5000659;28;20034;-75
2021/05/28 05:10:14;;;;;;;26.40;18.35;;;9.70;81.70;;;;;;5000975;28;20053;-75
2021/05/28 05:12:41;;;;;;;23.38;17.30;;;9.80;82.30;;;;;;4993786;28;20046;-76
2021/05/28 05:15:07;;;;;;;24.77;18.95;;;9.90;82.40;;;;;;4996821;28;20057;-78
2021/05/28 05:17:33;;;;;;;24.73;18.95;;;10.40;82.10;;;;;;4998223;28;20038;-76
2021/05/28 05:19:59;;;;;;;21.75;17.75;;;11.40;80.70;;;;;;5003071;28;20239;-75
2021/05/28 05:22:25;;;;;;;23.67;17.13;;;12.80;75.70;;;;;;5008624;28;20026;-75
2021/05/28 05:24:51;;;;;;;21.90;16.50;;;13.70;69.60;;;;;;5009298;28;20034;-76
2021/05/28 05:27:16;;;;;;;21.95;16.98;;;14.10;69.40;;;;;;5005016;28;20030;-74
2021/05/28 05:29:42;;;;;;;21.40;16.20;;;14.70;66.90;;;;;;5006316;28;20118;-76
2021/05/28 05:32:08;;;;;;;21.88;17.45;;;15.00;66.00;;;;;;5010826;28;20046;-74
2021/05/28 05:34:33;;;;;;;21.52;15.98;;;14.90;66.10;;;;;;5019014;28;20037;-72
2021/05/28 05:37:02;;;;;;;20.48;17.67;;;15.10;66.50;;;;;;5013795;28;20033;-72
2021/05/28 05:39:32;;;;;;;23.52;17.92;;;15.20;64.90;;;;;;5008121;28;20048;-72
2021/05/28 05:42:00;;;;;;;25.23;18.55;;;15.30;64.50;;;;;;5014396;28;20030;-74
2021/05/28 05:44:25;;;;;;;23.90;18.33;;;15.10;65.40;;;;;;5019116;28;20026;-72
2021/05/28 05:46:51;;;;;;;20.83;17.85;;;14.70;66.30;;;;;;5021355;28;20414;-72
2021/05/28 05:49:17;;;;;;;28.45;20.27;;;14.50;67.30;;;;;;5017899;28;20029;-73
2021/05/28 05:51:43;;;;;;;26.67;20.95;;;14.10;68.70;;;;;;5017765;28;20516;-72
2021/05/28 05:54:08;;;;;;;25.35;20.23;;;13.80;69.70;;;;;;5019675;28;21585;-73
2021/05/28 05:56:34;;;;;;;24.88;19.95;;;13.80;71.50;;;;;;5017926;28;20044;-75
2021/05/28 05:59:00;;;;;;;27.25;19.88;;;13.80;71.10;;;;;;5009638;28;20062;-74
2021/05/28 06:01:26;;;;;;;24.08;19.48;;;13.70;70.90;;;;;;4999139;28;20045;-71
2021/05/28 06:03:51;;;;;;;25.42;19.90;;;13.60;71.30;;;;;;5003657;28;20389;-72
2021/05/28 06:06:17;;;;;;;25.15;20.15;;;13.50;71.30;;;;;;5006528;28;20462;-72
2021/05/28 06:08:43;;;;;;;27.00;21.25;;;13.20;72.70;;;;;;5019410;28;20037;-71
2021/05/28 06:11:09;;;;;;;26.88;19.70;;;13.10;73.80;;;;;;5020669;28;20034;-71
2021/05/28 06:13:35;;;;;;;29.35;22.25;;;12.90;74.00;;;;;;5020609;28;20048;-72
2021/05/28 06:16:00;;;;;;;27.08;21.80;;;12.70;74.00;;;;;;5018414;28;20038;-72
2021/05/28 06:18:26;;;;;;;27.23;21.35;;;12.60;75.70;;;;;;5017205;28;20053;-73
2021/05/28 06:20:51;;;;;;;27.13;21.20;;;12.70;76.40;;;;;;5018699;28;20069;-72
2021/05/28 06:23:17;;;;;;;26.98;22.20;;;12.90;76.20;;;;;;5016974;28;20056;-74
2021/05/28 06:25:46;;;;;;;31.17;21.65;;;12.90;76.00;;;;;;5019044;28;20041;-69
2021/05/28 06:28:12;;;;;;;29.98;21.20;;;13.20;75.80;;;;;;5018933;28;20449;-69
2021/05/28 06:30:37;;;;;;;28.20;22.27;;;13.40;74.70;;;;;;5018432;28;20033;-75
2021/05/28 06:33:05;;;;;;;29.27;22.67;;;13.60;74.20;;;;;;5016972;28;20122;-69
2021/05/28 06:35:35;;;;;;;27.80;21.38;;;13.60;74.40;;;;;;5019776;28;20060;-70
2021/05/28 06:38:02;;;;;;;26.35;21.17;;;13.60;74.00;;;;;;5015921;28;20040;-72
2021/05/28 06:40:28;;;;;;;30.23;21.83;;;13.70;73.80;;;;;;5017904;28;20129;-76
2021/05/28 06:42:54;;;;;;;28.75;20.33;;;13.90;74.20;;;;;;5017580;28;21251;-75
2021/05/28 06:45:19;;;;;;;25.73;20.80;;;14.10;73.20;;;;;;4997785;28;20122;-73
2021/05/28 06:47:46;;;;;;;28.08;21.05;;;14.00;73.80;;;;;;4998186;28;20113;-74
2021/05/28 06:50:13;;;;;;;28.60;20.48;;;14.10;72.70;;;;;;5018839;28;20330;-76
2021/05/28 06:52:39;;;;;;;25.98;18.98;;;14.20;73.00;;;;;;5021220;28;20073;-78
2021/05/28 06:55:06;;;;;;;26.98;19.23;;;14.30;73.10;;;;;;5020790;28;20058;-74
2021/05/28 06:57:32;;;;;;;24.35;17.88;;;14.50;72.40;;;;;;5014846;28;20033;-71
2021/05/28 06:59:59;;;;;;;25.85;17.92;;;14.60;70.80;;;;;;5027668;28;20044;-71
2021/05/28 07:02:28;;;;;;;26.52;18.10;;;14.60;71.30;;;;;;5025972;28;20393;-71
2021/05/28 07:04:53;;;;;;;24.13;17.23;;;14.80;70.00;;;;;;5021275;28;20435;-71
2021/05/28 07:07:19;;;;;;;22.85;17.25;;;14.90;70.00;;;;;;4998973;28;20030;-71
2021/05/28 07:09:45;;;;;;;27.55;18.77;;;15.10;71.30;;;;;;5000692;28;20492;-72
2021/05/28 07:12:12;;;;;;;23.30;16.48;;;15.40;69.00;;;;;;5016463;28;20053;-71
2021/05/28 07:14:38;;;;;;;21.60;16.30;;;15.60;68.20;;;;;;5020034;28;20026;-75
2021/05/28 07:17:04;;;;;;;23.23;17.60;;;15.70;67.60;;;;;;5020254;28;20528;-71
2021/05/28 07:19:30;;;;;;;20.75;15.00;;;15.90;67.60;;;;;;5018461;28;20381;-70
2021/05/28 07:21:55;;;;;;;20.73;15.90;;;15.70;67.30;;;;;;5016902;28;20045;-71
2021/05/28 07:24:21;;;;;;;24.73;15.75;;;15.40;69.20;;;;;;5015875;28;20854;-73
2021/05/28 07:26:47;;;;;;;17.95;13.65;;;15.30;68.20;;;;;;5018913;28;20083;-71
2021/05/28 07:29:12;;;;;;;19.25;12.73;;;15.20;67.90;;;;;;5003854;28;20744;-72
2021/05/28 07:31:38;;;;;;;20.58;12.15;;;15.30;68.30;;;;;;5016519;28;20041;-71
2021/05/28 07:34:04;;;;;;;22.02;13.52;;;15.30;68.70;;;;;;5018537;28;20509;-71
2021/05/28 07:36:29;;;;;;;21.58;13.55;;;15.40;67.40;;;;;;5027131;28;20033;-71
2021/05/28 07:38:55;;;;;;;18.67;13.18;;;15.30;67.90;;;;;;5029751;28;20045;-73
2021/05/28 07:41:21;;;;;;;19.17;12.93;;;15.60;68.00;;;;;;5023756;28;20508;-70
2021/05/28 07:43:47;;;;;;;20.15;12.07;;;15.80;66.40;;;;;;5021392;28;20026;-70
2021/05/28 07:46:13;;;;;;;18.25;12.70;;;15.70;66.10;;;;;;5015849;28;20030;-69
2021/05/28 07:48:38;;;;;;;19.98;12.50;;;15.70;66.20;;;;;;5026177;28;20026;-70
2021/05/28 07:51:04;;;;;;;19.58;11.80;;;15.90;66.20;;;;;;5034939;28;20550;-71
2021/05/28 07:53:30;;;;;;;17.70;13.52;;;16.20;65.70;;;;;;5029806;28;20092;-70
2021/05/28 07:56:04;;;;;;;22.88;14.10;;;16.30;64.20;;;;;;5033492;28;20407;-70
2021/05/28 07:58:30;;;;;;;19.92;13.95;;;16.60;64.20;;;;;;5018994;28;20172;-71
2021/05/28 08:00:56;;;;;;;20.67;14.00;;;16.80;65.00;;;;;;5026356;28;20072;-70
2021/05/28 08:03:21;;;;;;;17.13;12.88;;;17.00;63.30;;;;;;5019106;28;20512;-71
2021/05/28 08:05:50;;;;;;;20.60;13.93;;;17.40;62.20;;;;;;5003889;28;20034;-69
2021/05/28 08:08:17;;;;;;;15.45;11.98;;;17.40;62.30;;;;;;5000452;28;20033;-72
2021/05/28 08:10:43;;;;;;;16.75;12.38;;;17.40;60.50;;;;;;5027204;28;20121;-72
2021/05/28 08:13:09;;;;;;;17.52;13.57;;;17.50;61.40;;;;;;5023449;28;20053;-73
2021/05/28 08:15:35;;;;;;;16.52;12.05;;;17.70;61.80;;;;;;5029304;28;20109;-73
2021/05/28 08:18:02;;;;;;;18.85;11.50;;;17.70;60.10;;;;;;5024264;28;20029;-72
2021/05/28 08:20:28;;;;;;;19.58;13.23;;;17.80;60.00;;;;;;5026171;28;20477;-71
2021/05/28 08:22:54;;;;;;;15.35;10.85;;;17.80;60.00;;;;;;5023495;28;20041;-70
2021/05/28 08:25:20;;;;;;;14.27;11.00;;;17.90;60.20;;;;;;5024142;28;24720;-70
2021/05/28 08:27:46;;;;;;;17.67;11.88;;;18.30;58.70;;;;;;5020505;28;20040;-70
2021/05/28 08:30:16;;;;;;;15.82;9.43;;;17.70;59.10;;;;;;5023175;28;20030;-70
2021/05/28 08:32:43;;;;;;;14.82;9.35;;;17.60;59.70;;;;;;5028115;28;20056;-72
2021/05/28 08:35:09;;;;;;;16.35;9.85;;;17.50;60.40;;;;;;4995568;28;20034;-71
2021/05/28 08:37:34;;;;;;;18.27;8.55;;;17.50;61.40;;;;;;4999372;28;20484;-71
2021/05/28 08:40:00;;;;;;;14.95;8.48;;;17.40;59.70;;;;;;5023910;28;20096;-71
2021/05/28 08:42:29;;;;;;;14.32;8.30;;;17.80;59.50;;;;;;5002282;28;20081;-70
2021/05/28 08:44:55;;;;;;;14.05;8.35;;;18.30;57.20;;;;;;5005574;28;20026;-70
2021/05/28 08:47:21;;;;;;;15.65;9.32;;;18.20;58.10;;;;;;5009429;28;20056;-71
2021/05/28 08:49:51;;;;;;;13.35;8.15;;;18.30;58.10;;;;;;5018478;28;20056;-70
2021/05/28 08:52:22;;;;;;;12.98;8.20;;;18.30;56.60;;;;;;5029628;28;20044;-71
2021/05/28 08:54:49;;;;;;;9.05;5.10;;;18.50;56.40;;;;;;5030731;28;20132;-70
2021/05/28 08:57:18;;;;;;;11.50;5.18;;;18.80;54.60;;;;;;5026512;28;20508;-71
2021/05/28 08:59:44;;;;;;;9.68;4.05;;;18.90;53.10;;;;;;5029366;28;20034;-71
2021/05/28 09:02:33;;;;;;;11.63;4.97;;;18.90;51.00;;;;;;5030610;28;20033;-71
2021/05/28 09:05:07;;;;;;;10.93;4.97;;;18.10;55.10;;;;;;5020746;28;20176;-70
2021/05/28 09:07:33;;;;;;;11.90;6.38;;;18.40;55.00;;;;;;5015167;28;20034;-69
2021/05/28 09:09:59;;;;;;;10.15;4.07;;;18.00;56.30;;;;;;5035064;28;20512;-70
2021/05/28 09:12:28;;;;;;;9.02;4.10;;;18.10;56.50;;;;;;5010534;28;20037;-72
2021/05/28 09:14:54;;;;;;;9.55;4.78;;;18.30;53.40;;;;;;5029104;28;20044;-72
2021/05/28 09:17:20;;;;;;;9.38;4.60;;;18.50;53.90;;;;;;5029638;28;20033;-71
2021/05/28 09:19:57;;;;;;;8.90;4.40;;;18.30;54.50;;;;;;5037295;28;20571;-70
2021/05/28 09:22:32;;;;;;;9.32;3.35;;;18.90;53.30;;;;;;5028233;28;20519;-71
2021/05/28 09:24:58;;;;;;;9.80;4.07;;;19.40;53.30;;;;;;5029600;28;20037;-71
2021/05/28 09:27:27;;;;;;;10.30;3.88;;;19.60;51.70;;;;;;5028797;28;20432;-71
2021/05/28 09:30:08;;;;;;;10.50;3.75;;;19.60;51.70;;;;;;5025203;28;20037;-71
2021/05/28 09:32:36;;;;;;;8.45;3.30;;;19.30;51.80;;;;;;5004417;28;20141;-72
2021/05/28 09:35:04;;;;;;;8.90;3.65;;;19.50;51.20;;;;;;5005288;28;20543;-73
2021/05/28 09:37:37;;;;;;;11.98;4.10;;;19.80;50.80;;;;;;5009642;28;20485;-72
2021/05/28 09:40:07;;;;;;;9.90;3.95;;;19.70;51.50;;;;;;5025417;28;20076;-71
2021/05/28 09:43:00;;;;;;;11.63;4.68;;;19.40;52.20;;;;;;5022270;28;20033;-71
2021/05/28 09:45:36;;;;;;;10.18;4.15;;;18.20;54.90;;;;;;5026319;28;20033;-72
2021/05/28 09:48:21;;;;;;;10.73;4.40;;;18.60;55.80;;;;;;5019766;28;20393;-70
2021/05/28 09:50:56;;;;;;;10.15;4.35;;;19.10;52.80;;;;;;5028421;28;20028;-72
2021/05/28 09:53:41;;;;;;;10.20;4.00;;;19.30;52.10;;;;;;5026681;28;20042;-70
2021/05/28 09:56:27;;;;;;;9.65;4.22;;;19.40;52.70;;;;;;5003757;28;20419;-70
2021/05/28 09:58:59;;;;;;;15.50;5.15;;;18.80;52.40;;;;;;4998786;28;20514;-70
2021/05/28 10:01:25;;;;;;;9.93;4.22;;;18.50;54.40;;;;;;5011903;28;20110;-70
2021/05/28 10:04:05;;;;;;;10.85;4.45;;;18.60;55.90;;;;;;5024038;28;20112;-70
2021/05/28 10:06:34;;;;;;;8.73;4.32;;;19.10;54.10;;;;;;5030058;28;20048;-71
2021/05/28 10:09:03;;;;;;;10.20;3.97;;;19.50;52.40;;;;;;5012118;28;20393;-72
2021/05/28 10:11:30;;;;;;;9.35;4.28;;;19.60;51.50;;;;;;5015313;28;20033;-71
2021/05/28 10:13:56;;;;;;;9.00;4.20;;;19.80;51.30;;;;;;5029928;28;20056;-70
2021/05/28 10:16:24;;;;;;;10.40;4.00;;;20.10;52.10;;;;;;5028951;28;20038;-72
2021/05/28 10:18:51;;;;;;;10.27;4.80;;;19.40;52.20;;;;;;5027244;28;20022;-69
2021/05/28 10:21:17;;;;;;;10.15;4.18;;;19.70;51.70;;;;;;5021685;28;20026;-71
2021/05/28 10:23:44;;;;;;;9.07;4.28;;;19.90;51.60;;;;;;5024833;28;20032;-69
2021/05/28 10:26:11;;;;;;;10.23;5.22;;;19.70;51.80;;;;;;5002969;28;20086;-70
2021/05/28 10:28:38;;;;;;;12.85;5.22;;;19.60;51.00;;;;;;5002094;28;20371;-70
2021/05/28 10:31:05;;;;;;;8.27;4.65;;;19.80;52.00;;;;;;5021772;28;20044;-71
2021/05/28 10:33:32;;;;;;;10.90;4.40;;;20.10;51.50;;;;;;4996290;28;20044;-72
2021/05/28 10:36:04;;;;;;;9.05;3.60;;;20.30;49.20;;;;;;4997809;28;20061;-70
2021/05/28 10:38:30;;;;;;;8.85;3.90;;;20.30;50.00;;;;;;5008027;28;20045;-71
2021/05/28 10:41:08;;;;;;;9.57;4.13;;;19.90;50.60;;;;;;5011278;28;20034;-70
2021/05/28 10:43:49;;;;;;;8.90;4.70;;;20.10;50.40;;;;;;5002199;28;20038;-70
2021/05/28 10:46:15;;;;;;;7.57;3.92;;;20.40;49.60;;;;;;4996984;28;20071;-72
2021/05/28 10:48:42;;;;;;;7.75;3.97;;;20.60;47.60;;;;;;5004713;28;20026;-71
2021/05/28 10:51:16;;;;;;;8.73;5.00;;;20.70;48.00;;;;;;5022919;28;20030;-70
2021/05/28 10:53:51;;;;;;;9.38;4.90;;;20.80;46.60;;;;;;5010397;28;20092;-70
2021/05/28 10:56:18;;;;;;;9.70;4.43;;;20.00;49.70;;;;;;5006102;28;20132;-71
2021/05/28 10:58:57;;;;;;;9.45;5.03;;;20.40;48.60;;;;;;5021292;28;20030;-73
2021/05/28 11:01:35;;;;;;;10.63;4.95;;;19.60;50.20;;;;;;5022929;28;20042;-70
2021/05/28 11:04:03;;;;;;;11.80;5.65;;;19.50;49.20;;;;;;5023346;28;20087;-73
2021/05/28 11:06:34;;;;;;;12.52;5.10;;;19.60;50.00;;;;;;5022997;28;20053;-70
2021/05/28 11:09:09;;;;;;;11.07;5.22;;;19.50;50.00;;;;;;5020327;28;20046;-71
2021/05/28 11:11:38;;;;;;;9.20;4.60;;;19.60;50.50;;;;;;5025548;28;20124;-71
2021/05/28 11:14:04;;;;;;;10.55;5.35;;;20.40;50.30;;;;;;5018838;28;20057;-71
2021/05/28 11:16:53;;;;;;;9.88;5.07;;;20.90;46.90;;;;;;5023824;28;20026;-70
2021/05/28 11:19:27;;;;;;;11.20;5.60;;;21.60;46.60;;;;;;5019269;28;20107;-74
2021/05/28 11:21:57;;;;;;;;;;;21.40;46.10;;;;;;5038948;28;20038;-71
2021/05/28 11:24:52;;;;;;;9.55;5.18;;;21.50;46.20;;;;;;5022868;28;19917;-73
2021/05/28 11:27:22;;;;;;;12.27;5.30;;;21.10;46.80;;;;;;5010663;28;20034;-71
2021/05/28 11:29:54;;;;;;;11.07;4.85;;;20.80;46.90;;;;;;5020265;28;20041;-71
2021/05/28 11:32:32;;;;;;;9.95;4.72;;;21.10;46.00;;;;;;5019072;28;20183;-72
2021/05/28 11:35:20;;;;;;;10.15;4.82;;;21.00;45.60;;;;;;5019279;28;20072;-71
2021/05/28 11:38:06;;;;;;;13.18;5.55;;;21.20;45.20;;;;;;5019977;28;20025;-74
2021/05/28 11:40:35;;;;;;;10.52;5.90;;;21.40;46.00;;;;;;5003639;28;20081;-71
2021/05/28 11:43:06;;;;;;;11.45;6.47;;;21.50;45.90;;;;;;5009827;28;20068;-72
2021/05/28 11:45:33;;;;;;;11.10;6.10;;;21.30;45.60;;;;;;5021962;28;20049;-71
2021/05/28 11:47:59;;;;;;;12.77;6.20;;;20.90;46.80;;;;;;5021130;28;20397;-73
2021/05/28 11:50:25;;;;;;;12.82;6.32;;;21.10;46.80;;;;;;5022054;28;20493;-72
2021/05/28 11:53:01;;;;;;;13.55;6.93;;;21.60;47.40;;;;;;5016114;28;20046;-71
2021/05/28 11:55:29;;;;;;;9.40;6.05;;;21.40;48.00;;;;;;4997686;28;20112;-71
2021/05/28 11:58:02;;;;;;;14.10;6.50;;;21.10;48.10;;;;;;5014517;28;20040;-72
2021/05/28 12:00:29;;;;;;;13.57;6.20;;;21.30;48.00;;;;;;5013348;28;20048;-72
2021/05/28 12:02:57;;;;;;;11.57;6.93;;;21.80;48.80;;;;;;5017869;28;20029;-72
2021/05/28 12:05:31;;;;;;;13.50;6.95;;;21.40;46.90;;;;;;5009937;28;20057;-72
2021/05/28 12:08:14;;;;;;;11.70;6.97;;;21.20;46.90;;;;;;5019509;28;20465;-71
2021/05/28 12:10:44;;;;;;;10.55;5.95;;;21.60;47.70;;;;;;5012339;28;20104;-72
2021/05/28 12:13:20;;;;;;;11.80;5.88;;;22.10;46.90;;;;;;5013940;28;20448;-74
2021/05/28 12:16:01;;;;;;;11.43;6.95;;;22.50;45.70;;;;;;5022778;28;20037;-73
2021/05/28 12:18:31;;;;;;;11.70;6.95;;;22.00;46.00;;;;;;4997910;28;20025;-71
2021/05/28 12:21:08;;;;;;;11.82;7.40;;;21.80;46.90;;;;;;4994077;28;20080;-71
2021/05/28 12:23:42;;;;;;;13.18;7.60;;;21.50;46.30;;;;;;5024565;28;20041;-72
2021/05/28 12:26:08;;;;;;;10.40;7.38;;;21.10;46.30;;;;;;5017200;28;20030;-74
2021/05/28 12:28:36;;;;;;;12.68;7.65;;;20.40;48.70;;;;;;5022479;28;20511;-71
2021/05/28 12:31:14;;;;;;;11.40;7.80;;;20.50;47.80;;;;;;5024698;28;20037;-74
2021/05/28 12:33:46;;;;;;;14.20;7.85;;;20.20;48.60;;;;;;5026357;28;20508;-72
2021/05/28 12:36:14;;;;;;;13.43;7.88;;;20.40;50.10;;;;;;5020507;28;20072;-71
2021/05/28 12:38:45;;;;;;;15.27;7.43;;;20.80;49.10;;;;;;5012977;28;20042;-72